Onweer radar Meer informatie blitzortung!


Regen radar Meer informatie rain snow radar



METAR rapporten vliegvelden

   
EHRD - Rotterdam
Gewijzigd: 23-03-2019 00:55
Nevel, Bewolking  
Nevel, Bewolking  
   Wind: Westen 3 km/h
Wind: Westen 3 km/h
Temperatuur: 8°C
Voelt als: 7°C
Dauwpunt: 7°C
Vochtigheid: 93%
Barometer: 1028 hPa
Bewolking: Overcast
Zicht: 4 km
Bewolking: Bewolking 1800 ft
EHRD 222355Z AUTO 26003KT 230V290 4300 BR OVC018 08/07 Q1028 BECMG 4000
EBAW - Antwerpen
Gewijzigd: 23-03-2019 00:50
Nevel, Bewolking  
Nevel, Bewolking  
   Wind: WNW 9 km/h
Wind: WNW 9 km/h
Temperatuur: 9°C
Voelt als: 7°C
Dauwpunt: 6°C
Vochtigheid: 82%
Barometer: 1029 hPa
Bewolking: Overcast
Zicht: 4 km
Bewolking: Grotendeels bewolkt 1100 ft,
Bewolking 1300 ft
EBAW 222350Z AUTO 30009KT 4000 BR BKN011/// OVC013/// 09/06 Q1029
EHAM - Amsterdam
Gewijzigd: 23-03-2019 01:25
Nevel, Grotendeels bewolkt  
Nevel, Grotendeels bewolkt  
   Wind: WZW 6 km/h
Wind: WZW 6 km/h
Temperatuur: 8°C
Voelt als: 6°C
Dauwpunt: 7°C
Vochtigheid: 93%
Barometer: 1027 hPa
Bewolking: Mostly Cloudy
Zicht: 5 km
Bewolking: Grotendeels bewolkt 2000 ft
EHAM 230025Z 24006KT 210V270 4500 BR BKN020 08/07 Q1027 BECMG 3000 NSC
EHEH - Eindhoven
Gewijzigd: 23-03-2019 01:25
Nevel, Grotendeels bewolkt  
Nevel, Grotendeels bewolkt  
   Wind: WNW 7 km/h
Wind: WNW 7 km/h
Temperatuur: 8°C
Voelt als: 6°C
Dauwpunt: 7°C
Vochtigheid: 93%
Barometer: 1028 hPa
Bewolking: Mostly Cloudy
Zicht: 2 km
Bewolking: Licht bewolkt 100 ft,
Gedeeltelijk bewolkt 300 ft,
Grotendeels bewolkt 700 ft
EHEH 230025Z AUTO 30007KT 230V010 2100 BR FEW001 SCT003 BKN007 08/07 Q1028 YLO
  

Script ontwikkeld door  Saratoga-weather.org Aangepast voor de template door  Weerstation Leuven

U vindt ons ook hier:

Het Weer Aktueel

Apparatuur in gebruik:

Weerstation
Davis VP2

Weerprogramma
Cumulus

Weercomputer
Pipo X9 with Windows 10

Davis VP2

Cumulus

Pipo X9 with Windows 10